sensor_id;sensor_type;location;lat;lon;timestamp;pressure;altitude;pressure_sealevel;temperature;humidity
72118;BME280;59992;47.490;8.736;2023-02-17T00:01:51;97670.09;;;5.33;73.76
72118;BME280;59992;47.490;8.736;2023-02-17T00:04:20;97670.45;;;5.34;73.44
72118;BME280;59992;47.490;8.736;2023-02-17T00:06:51;97666.33;;;5.34;73.69
72118;BME280;59992;47.490;8.736;2023-02-17T00:09:22;97663.73;;;5.36;73.65
72118;BME280;59992;47.490;8.736;2023-02-17T00:11:55;97660.19;;;5.31;73.76
72118;BME280;59992;47.490;8.736;2023-02-17T00:14:28;97663.39;;;5.34;74.16
72118;BME280;59992;47.490;8.736;2023-02-17T00:16:57;97664.33;;;5.34;73.71
72118;BME280;59992;47.490;8.736;2023-02-17T00:19:26;97673.30;;;5.35;73.77
72118;BME280;59992;47.490;8.736;2023-02-17T00:22:01;97677.55;;;5.36;73.85
72118;BME280;59992;47.490;8.736;2023-02-17T00:24:41;97674.42;;;5.36;73.71
72118;BME280;59992;47.490;8.736;2023-02-17T00:27:11;97680.48;;;5.36;73.83
72118;BME280;59992;47.490;8.736;2023-02-17T00:29:44;97679.67;;;5.35;73.49
72118;BME280;59992;47.490;8.736;2023-02-17T00:32:17;97679.39;;;5.34;73.32
72118;BME280;59992;47.490;8.736;2023-02-17T00:34:49;97677.09;;;5.33;73.27
72118;BME280;59992;47.490;8.736;2023-02-17T00:37:21;97682.98;;;5.30;73.57
72118;BME280;59992;47.490;8.736;2023-02-17T00:39:56;97681.11;;;5.29;73.13
72118;BME280;59992;47.490;8.736;2023-02-17T00:42:25;97686.79;;;5.27;73.39
72118;BME280;59992;47.490;8.736;2023-02-17T00:44:58;97688.77;;;5.23;73.33
72118;BME280;59992;47.490;8.736;2023-02-17T00:47:31;97690.84;;;5.20;72.94
72118;BME280;59992;47.490;8.736;2023-02-17T00:50:04;97684.29;;;5.15;73.36
72118;BME280;59992;47.490;8.736;2023-02-17T00:52:38;97686.40;;;5.10;73.43
72118;BME280;59992;47.490;8.736;2023-02-17T00:55:13;97687.14;;;5.05;72.95
72118;BME280;59992;47.490;8.736;2023-02-17T00:57:52;97688.39;;;4.99;73.04
72118;BME280;59992;47.490;8.736;2023-02-17T01:00:24;97689.64;;;4.91;73.33
72118;BME280;59992;47.490;8.736;2023-02-17T01:02:54;97692.46;;;4.85;72.73
72118;BME280;59992;47.490;8.736;2023-02-17T01:05:24;97693.70;;;4.79;73.00
72118;BME280;59992;47.490;8.736;2023-02-17T01:07:59;97688.80;;;4.67;72.99
72118;BME280;59992;47.490;8.736;2023-02-17T01:10:32;97702.02;;;4.66;72.83
72118;BME280;59992;47.490;8.736;2023-02-17T01:13:07;97702.77;;;4.59;72.83
72118;BME280;59992;47.490;8.736;2023-02-17T01:15:40;97702.91;;;4.52;72.85
72118;BME280;59992;47.490;8.736;2023-02-17T01:18:11;97699.92;;;4.44;73.36
72118;BME280;59992;47.490;8.736;2023-02-17T01:20:39;97698.94;;;4.37;73.52
72118;BME280;59992;47.490;8.736;2023-02-17T01:23:08;97698.17;;;4.29;74.25
72118;BME280;59992;47.490;8.736;2023-02-17T01:25:37;97700.27;;;4.23;74.48
72118;BME280;59992;47.490;8.736;2023-02-17T01:28:07;97695.66;;;4.20;74.02
72118;BME280;59992;47.490;8.736;2023-02-17T01:30:34;97696.34;;;4.17;74.10
72118;BME280;59992;47.490;8.736;2023-02-17T01:33:02;97694.71;;;4.17;74.27
72118;BME280;59992;47.490;8.736;2023-02-17T01:35:31;97696.67;;;4.15;74.70
72118;BME280;59992;47.490;8.736;2023-02-17T01:37:59;97693.65;;;4.15;75.50
72118;BME280;59992;47.490;8.736;2023-02-17T01:40:26;97690.84;;;4.14;74.74
72118;BME280;59992;47.490;8.736;2023-02-17T01:42:54;97685.41;;;4.15;75.19
72118;BME280;59992;47.490;8.736;2023-02-17T01:45:33;97683.60;;;4.16;76.03
72118;BME280;59992;47.490;8.736;2023-02-17T01:48:06;97682.58;;;4.18;75.83
72118;BME280;59992;47.490;8.736;2023-02-17T01:50:39;97683.38;;;4.20;76.23
72118;BME280;59992;47.490;8.736;2023-02-17T01:53:09;97679.72;;;4.22;76.67
72118;BME280;59992;47.490;8.736;2023-02-17T01:55:39;97675.15;;;4.25;75.90
72118;BME280;59992;47.490;8.736;2023-02-17T01:58:09;97677.77;;;4.27;76.34
72118;BME280;59992;47.490;8.736;2023-02-17T02:00:38;97680.29;;;4.31;76.42
72118;BME280;59992;47.490;8.736;2023-02-17T02:03:09;97674.61;;;4.34;76.56
72118;BME280;59992;47.490;8.736;2023-02-17T02:05:40;97671.38;;;4.38;77.04
72118;BME280;59992;47.490;8.736;2023-02-17T02:08:09;97665.29;;;4.40;77.40
72118;BME280;59992;47.490;8.736;2023-02-17T02:10:37;97662.06;;;4.44;75.98
72118;BME280;59992;47.490;8.736;2023-02-17T02:13:06;97655.65;;;4.48;76.01
72118;BME280;59992;47.490;8.736;2023-02-17T02:15:39;97657.48;;;4.52;76.24
72118;BME280;59992;47.490;8.736;2023-02-17T02:18:32;97656.80;;;4.58;75.61
72118;BME280;59992;47.490;8.736;2023-02-17T02:24:21;97657.52;;;4.68;75.52
72118;BME280;59992;47.490;8.736;2023-02-17T02:27:12;97658.77;;;4.71;75.83
72118;BME280;59992;47.490;8.736;2023-02-17T02:32:53;97660.88;;;4.79;75.28
72118;BME280;59992;47.490;8.736;2023-02-17T02:35:32;97655.45;;;4.82;75.06
72118;BME280;59992;47.490;8.736;2023-02-17T02:38:04;97653.05;;;4.85;75.04
72118;BME280;59992;47.490;8.736;2023-02-17T02:40:36;97652.41;;;4.88;74.59
72118;BME280;59992;47.490;8.736;2023-02-17T02:43:07;97654.75;;;4.92;75.38
72118;BME280;59992;47.490;8.736;2023-02-17T02:45:35;97646.48;;;4.93;75.38
72118;BME280;59992;47.490;8.736;2023-02-17T02:48:03;97638.70;;;4.95;74.86
72118;BME280;59992;47.490;8.736;2023-02-17T02:56:29;97639.36;;;5.14;72.51
72118;BME280;59992;47.490;8.736;2023-02-17T02:59:07;97641.19;;;5.30;69.51
72118;BME280;59992;47.490;8.736;2023-02-17T03:01:44;97639.16;;;5.45;70.18
72118;BME280;59992;47.490;8.736;2023-02-17T03:04:21;97641.31;;;5.60;70.39
72118;BME280;59992;47.490;8.736;2023-02-17T03:06:53;97642.49;;;5.71;70.81
72118;BME280;59992;47.490;8.736;2023-02-17T03:09:25;97644.79;;;5.83;70.21
72118;BME280;59992;47.490;8.736;2023-02-17T03:11:54;97643.87;;;5.94;69.02
72118;BME280;59992;47.490;8.736;2023-02-17T03:14:22;97643.94;;;6.05;68.74
72118;BME280;59992;47.490;8.736;2023-02-17T03:16:50;97638.20;;;6.17;65.75
72118;BME280;59992;47.490;8.736;2023-02-17T03:19:21;97636.79;;;6.30;68.12
72118;BME280;59992;47.490;8.736;2023-02-17T03:21:53;97632.55;;;6.40;66.13
72118;BME280;59992;47.490;8.736;2023-02-17T03:24:23;97624.27;;;6.51;66.39
72118;BME280;59992;47.490;8.736;2023-02-17T03:26:51;97624.02;;;6.62;67.82
72118;BME280;59992;47.490;8.736;2023-02-17T03:29:19;97626.07;;;6.73;63.86
72118;BME280;59992;47.490;8.736;2023-02-17T03:31:47;97623.95;;;6.82;65.34
72118;BME280;59992;47.490;8.736;2023-02-17T03:34:15;97628.60;;;6.97;66.30
72118;BME280;59992;47.490;8.736;2023-02-17T03:36:42;97633.59;;;7.04;66.61
72118;BME280;59992;47.490;8.736;2023-02-17T03:39:10;97639.54;;;7.11;66.29
72118;BME280;59992;47.490;8.736;2023-02-17T03:41:38;97639.44;;;7.16;63.56
72118;BME280;59992;47.490;8.736;2023-02-17T03:44:06;97636.95;;;7.24;63.90
72118;BME280;59992;47.490;8.736;2023-02-17T03:46:33;97642.09;;;7.29;65.30
72118;BME280;59992;47.490;8.736;2023-02-17T03:49:01;97639.93;;;7.31;64.87
72118;BME280;59992;47.490;8.736;2023-02-17T03:51:28;97641.37;;;7.32;61.50
72118;BME280;59992;47.490;8.736;2023-02-17T03:53:56;97639.65;;;7.38;61.82
72118;BME280;59992;47.490;8.736;2023-02-17T03:56:26;97641.59;;;7.42;63.53
72118;BME280;59992;47.490;8.736;2023-02-17T03:58:55;97642.83;;;7.42;63.88
72118;BME280;59992;47.490;8.736;2023-02-17T04:01:22;97635.88;;;7.42;64.85
72118;BME280;59992;47.490;8.736;2023-02-17T04:03:50;97632.14;;;7.42;63.77
72118;BME280;59992;47.490;8.736;2023-02-17T04:06:18;97628.67;;;7.43;62.21
72118;BME280;59992;47.490;8.736;2023-02-17T04:08:48;97631.91;;;7.44;60.78
72118;BME280;59992;47.490;8.736;2023-02-17T04:11:16;97635.01;;;7.48;60.30
72118;BME280;59992;47.490;8.736;2023-02-17T04:13:43;97636.52;;;7.52;59.07
72118;BME280;59992;47.490;8.736;2023-02-17T04:16:12;97634.81;;;7.57;60.05
72118;BME280;59992;47.490;8.736;2023-02-17T04:18:40;97639.04;;;7.63;61.24
72118;BME280;59992;47.490;8.736;2023-02-17T04:21:08;97642.73;;;7.67;58.36
72118;BME280;59992;47.490;8.736;2023-02-17T04:23:37;97641.77;;;7.76;57.89
72118;BME280;59992;47.490;8.736;2023-02-17T04:26:06;97644.97;;;7.84;60.45
72118;BME280;59992;47.490;8.736;2023-02-17T04:28:34;97646.82;;;7.80;58.76
72118;BME280;59992;47.490;8.736;2023-02-17T04:31:04;97644.20;;;7.85;58.90
72118;BME280;59992;47.490;8.736;2023-02-17T04:33:31;97638.89;;;7.85;58.89
72118;BME280;59992;47.490;8.736;2023-02-17T04:36:00;97646.46;;;7.95;57.84
72118;BME280;59992;47.490;8.736;2023-02-17T04:38:28;97648.59;;;7.99;61.14
72118;BME280;59992;47.490;8.736;2023-02-17T04:40:56;97639.27;;;7.92;59.93
72118;BME280;59992;47.490;8.736;2023-02-17T04:43:26;97645.80;;;7.97;60.05
72118;BME280;59992;47.490;8.736;2023-02-17T04:45:55;97640.34;;;7.96;59.73
72118;BME280;59992;47.490;8.736;2023-02-17T04:48:23;97642.27;;;7.97;59.56
72118;BME280;59992;47.490;8.736;2023-02-17T04:50:52;97644.59;;;7.97;60.46
72118;BME280;59992;47.490;8.736;2023-02-17T04:53:19;97646.11;;;7.97;60.25
72118;BME280;59992;47.490;8.736;2023-02-17T04:55:48;97648.10;;;7.96;57.57
72118;BME280;59992;47.490;8.736;2023-02-17T04:58:17;97649.45;;;8.00;57.74
72118;BME280;59992;47.490;8.736;2023-02-17T05:00:45;97645.62;;;8.04;58.28
72118;BME280;59992;47.490;8.736;2023-02-17T05:03:13;97643.29;;;8.06;58.59
72118;BME280;59992;47.490;8.736;2023-02-17T05:05:41;97641.26;;;8.08;58.26
72118;BME280;59992;47.490;8.736;2023-02-17T05:08:09;97640.45;;;8.10;59.47
72118;BME280;59992;47.490;8.736;2023-02-17T05:10:37;97637.35;;;8.10;58.16
72118;BME280;59992;47.490;8.736;2023-02-17T05:13:04;97635.98;;;8.10;58.49
72118;BME280;59992;47.490;8.736;2023-02-17T05:15:32;97634.92;;;8.12;59.45
72118;BME280;59992;47.490;8.736;2023-02-17T05:17:59;97633.49;;;8.12;59.33
72118;BME280;59992;47.490;8.736;2023-02-17T05:20:26;97631.73;;;8.17;59.62
72118;BME280;59992;47.490;8.736;2023-02-17T05:22:54;97630.31;;;8.21;60.06
72118;BME280;59992;47.490;8.736;2023-02-17T05:25:21;97627.30;;;8.27;59.85
72118;BME280;59992;47.490;8.736;2023-02-17T05:27:48;97631.30;;;8.30;59.22
72118;BME280;59992;47.490;8.736;2023-02-17T05:30:16;97630.23;;;8.32;58.51
72118;BME280;59992;47.490;8.736;2023-02-17T05:32:44;97631.78;;;8.37;57.81
72118;BME280;59992;47.490;8.736;2023-02-17T05:35:11;97632.81;;;8.44;59.12
72118;BME280;59992;47.490;8.736;2023-02-17T05:37:39;97629.11;;;8.46;58.95
72118;BME280;59992;47.490;8.736;2023-02-17T05:40:08;97625.04;;;8.48;60.05
72118;BME280;59992;47.490;8.736;2023-02-17T05:42:35;97623.52;;;8.44;59.32
72118;BME280;59992;47.490;8.736;2023-02-17T05:45:03;97620.84;;;8.39;58.17
72118;BME280;59992;47.490;8.736;2023-02-17T05:47:31;97622.84;;;8.40;60.54
72118;BME280;59992;47.490;8.736;2023-02-17T05:49:58;97624.95;;;8.40;60.38
72118;BME280;59992;47.490;8.736;2023-02-17T05:52:26;97629.70;;;8.41;60.29
72118;BME280;59992;47.490;8.736;2023-02-17T05:54:55;97635.30;;;8.42;58.47
72118;BME280;59992;47.490;8.736;2023-02-17T05:57:25;97633.73;;;8.45;59.18
72118;BME280;59992;47.490;8.736;2023-02-17T05:59:56;97635.34;;;8.43;59.08
72118;BME280;59992;47.490;8.736;2023-02-17T06:02:23;97637.42;;;8.41;60.38
72118;BME280;59992;47.490;8.736;2023-02-17T06:04:51;97636.70;;;8.37;59.79
72118;BME280;59992;47.490;8.736;2023-02-17T06:07:19;97637.90;;;8.35;59.35
72118;BME280;59992;47.490;8.736;2023-02-17T06:09:46;97637.23;;;8.33;59.45
72118;BME280;59992;47.490;8.736;2023-02-17T06:12:14;97635.19;;;8.28;59.60
72118;BME280;59992;47.490;8.736;2023-02-17T06:14:41;97636.22;;;8.23;60.66
72118;BME280;59992;47.490;8.736;2023-02-17T06:17:09;97639.54;;;8.18;61.88
72118;BME280;59992;47.490;8.736;2023-02-17T06:19:37;97639.03;;;8.11;62.11
72118;BME280;59992;47.490;8.736;2023-02-17T06:22:06;97643.54;;;8.05;62.41
72118;BME280;59992;47.490;8.736;2023-02-17T06:24:33;97640.15;;;7.95;62.96
72118;BME280;59992;47.490;8.736;2023-02-17T06:27:01;97640.14;;;7.88;63.33
72118;BME280;59992;47.490;8.736;2023-02-17T06:29:29;97639.36;;;7.82;63.35
72118;BME280;59992;47.490;8.736;2023-02-17T06:31:57;97641.00;;;7.76;63.15
72118;BME280;59992;47.490;8.736;2023-02-17T06:34:24;97650.08;;;7.73;63.03
72118;BME280;59992;47.490;8.736;2023-02-17T06:36:53;97653.39;;;7.69;63.41
72118;BME280;59992;47.490;8.736;2023-02-17T06:39:22;97655.80;;;7.67;63.35
72118;BME280;59992;47.490;8.736;2023-02-17T06:41:50;97655.21;;;7.64;63.70
72118;BME280;59992;47.490;8.736;2023-02-17T06:44:17;97662.22;;;7.62;64.35
72118;BME280;59992;47.490;8.736;2023-02-17T06:46:45;97660.52;;;7.60;64.99
72118;BME280;59992;47.490;8.736;2023-02-17T06:49:13;97662.45;;;7.55;64.09
72118;BME280;59992;47.490;8.736;2023-02-17T06:51:40;97662.72;;;7.52;64.75
72118;BME280;59992;47.490;8.736;2023-02-17T06:54:08;97664.55;;;7.53;63.60
72118;BME280;59992;47.490;8.736;2023-02-17T06:56:36;97669.14;;;7.55;64.09
72118;BME280;59992;47.490;8.736;2023-02-17T06:59:04;97675.66;;;7.54;63.87
72118;BME280;59992;47.490;8.736;2023-02-17T07:01:32;97678.69;;;7.59;60.82
72118;BME280;59992;47.490;8.736;2023-02-17T07:04:00;97685.29;;;7.67;63.94
72118;BME280;59992;47.490;8.736;2023-02-17T07:06:27;97682.33;;;7.71;63.60
72118;BME280;59992;47.490;8.736;2023-02-17T07:08:55;97683.64;;;7.69;63.43
72118;BME280;59992;47.490;8.736;2023-02-17T07:11:23;97683.54;;;7.72;62.85
72118;BME280;59992;47.490;8.736;2023-02-17T07:13:51;97682.51;;;7.77;63.21
72118;BME280;59992;47.490;8.736;2023-02-17T07:16:18;97687.52;;;7.81;63.20
72118;BME280;59992;47.490;8.736;2023-02-17T07:18:46;97687.95;;;7.84;63.69
72118;BME280;59992;47.490;8.736;2023-02-17T07:21:14;97687.76;;;7.88;63.11
72118;BME280;59992;47.490;8.736;2023-02-17T07:23:42;97686.80;;;7.95;62.71
72118;BME280;59992;47.490;8.736;2023-02-17T07:26:11;97691.77;;;8.02;62.46
72118;BME280;59992;47.490;8.736;2023-02-17T07:28:39;97690.98;;;8.08;61.05
72118;BME280;59992;47.490;8.736;2023-02-17T07:31:09;97688.91;;;8.18;60.86
72118;BME280;59992;47.490;8.736;2023-02-17T07:33:37;97691.38;;;8.30;60.74
72118;BME280;59992;47.490;8.736;2023-02-17T07:36:07;97687.52;;;8.42;61.47
72118;BME280;59992;47.490;8.736;2023-02-17T07:38:35;97688.00;;;8.54;60.48
72118;BME280;59992;47.490;8.736;2023-02-17T07:41:08;97685.49;;;8.67;61.51
72118;BME280;59992;47.490;8.736;2023-02-17T07:43:36;97689.33;;;8.82;61.48
72118;BME280;59992;47.490;8.736;2023-02-17T07:46:04;97693.16;;;8.96;59.66
72118;BME280;59992;47.490;8.736;2023-02-17T07:48:32;97691.38;;;9.11;58.18
72118;BME280;59992;47.490;8.736;2023-02-17T07:51:05;97689.87;;;9.25;57.19
72118;BME280;59992;47.490;8.736;2023-02-17T07:53:34;97697.00;;;9.39;56.19
72118;BME280;59992;47.490;8.736;2023-02-17T07:56:03;97696.36;;;9.53;56.93
72118;BME280;59992;47.490;8.736;2023-02-17T07:58:31;97698.80;;;9.62;53.63
72118;BME280;59992;47.490;8.736;2023-02-17T08:01:05;97702.77;;;9.74;57.27
72118;BME280;59992;47.490;8.736;2023-02-17T08:03:33;97700.85;;;9.84;57.65
72118;BME280;59992;47.490;8.736;2023-02-17T08:06:01;97704.56;;;9.90;54.87
72118;BME280;59992;47.490;8.736;2023-02-17T08:08:29;97705.48;;;10.00;54.71
72118;BME280;59992;47.490;8.736;2023-02-17T08:11:18;97708.77;;;10.10;55.85
72118;BME280;59992;47.490;8.736;2023-02-17T08:14:04;97705.65;;;10.16;52.93
72118;BME280;59992;47.490;8.736;2023-02-17T08:16:34;97713.36;;;10.22;54.92
72118;BME280;59992;47.490;8.736;2023-02-17T08:19:01;97710.84;;;10.28;55.04
72118;BME280;59992;47.490;8.736;2023-02-17T08:21:29;97716.02;;;10.34;54.28
72118;BME280;59992;47.490;8.736;2023-02-17T08:23:56;97719.73;;;10.39;52.56
72118;BME280;59992;47.490;8.736;2023-02-17T08:26:24;97716.02;;;10.41;51.14
72118;BME280;59992;47.490;8.736;2023-02-17T08:28:53;97724.28;;;10.48;50.91
72118;BME280;59992;47.490;8.736;2023-02-17T08:31:24;97731.48;;;10.53;51.78
72118;BME280;59992;47.490;8.736;2023-02-17T08:33:52;97735.73;;;10.58;51.80
72118;BME280;59992;47.490;8.736;2023-02-17T08:36:19;97737.52;;;10.60;51.92
72118;BME280;59992;47.490;8.736;2023-02-17T08:38:50;97735.30;;;10.63;52.22
72118;BME280;59992;47.490;8.736;2023-02-17T08:41:22;97738.95;;;10.68;52.29
72118;BME280;59992;47.490;8.736;2023-02-17T08:43:51;97741.33;;;10.70;51.19
72118;BME280;59992;47.490;8.736;2023-02-17T08:46:19;97744.17;;;10.71;52.11
72118;BME280;59992;47.490;8.736;2023-02-17T08:48:47;97746.37;;;10.76;52.46
72118;BME280;59992;47.490;8.736;2023-02-17T08:51:17;97750.58;;;10.79;51.77
72118;BME280;59992;47.490;8.736;2023-02-17T08:53:50;97754.59;;;10.82;52.35
72118;BME280;59992;47.490;8.736;2023-02-17T08:56:17;97758.55;;;10.87;51.96
72118;BME280;59992;47.490;8.736;2023-02-17T08:58:45;97767.50;;;10.90;51.31
72118;BME280;59992;47.490;8.736;2023-02-17T09:01:12;97772.84;;;10.97;52.89
72118;BME280;59992;47.490;8.736;2023-02-17T09:03:41;97769.90;;;10.99;51.72
72118;BME280;59992;47.490;8.736;2023-02-17T09:06:08;97772.13;;;11.08;52.18
72118;BME280;59992;47.490;8.736;2023-02-17T09:08:37;97774.53;;;11.09;51.09
72118;BME280;59992;47.490;8.736;2023-02-17T09:11:05;97775.14;;;11.09;50.76
72118;BME280;59992;47.490;8.736;2023-02-17T09:13:34;97774.27;;;11.11;50.47
72118;BME280;59992;47.490;8.736;2023-02-17T09:16:01;97780.08;;;11.20;51.90
72118;BME280;59992;47.490;8.736;2023-02-17T09:18:29;97781.40;;;11.28;50.85
72118;BME280;59992;47.490;8.736;2023-02-17T09:20:57;97777.39;;;11.39;50.16
72118;BME280;59992;47.490;8.736;2023-02-17T09:23:26;97776.55;;;11.57;51.18
72118;BME280;59992;47.490;8.736;2023-02-17T09:26:01;97778.13;;;11.64;50.14
72118;BME280;59992;47.490;8.736;2023-02-17T09:28:31;97781.37;;;11.68;50.44
72118;BME280;59992;47.490;8.736;2023-02-17T09:31:07;97780.63;;;11.73;49.83
72118;BME280;59992;47.490;8.736;2023-02-17T09:33:35;97785.72;;;11.79;50.87
72118;BME280;59992;47.490;8.736;2023-02-17T09:36:04;97788.53;;;11.80;50.73
72118;BME280;59992;47.490;8.736;2023-02-17T09:38:33;97794.17;;;11.81;50.28
72118;BME280;59992;47.490;8.736;2023-02-17T09:41:05;97789.92;;;11.81;50.18
72118;BME280;59992;47.490;8.736;2023-02-17T09:43:36;97795.38;;;11.77;50.07
72118;BME280;59992;47.490;8.736;2023-02-17T09:46:07;97799.38;;;11.74;49.76
72118;BME280;59992;47.490;8.736;2023-02-17T09:48:38;97804.38;;;11.74;49.60
72118;BME280;59992;47.490;8.736;2023-02-17T09:51:12;97804.48;;;11.77;49.87
72118;BME280;59992;47.490;8.736;2023-02-17T09:53:50;97802.60;;;11.83;50.11
72118;BME280;59992;47.490;8.736;2023-02-17T09:56:22;97799.63;;;11.85;49.72
72118;BME280;59992;47.490;8.736;2023-02-17T09:58:54;97801.05;;;11.91;50.28
72118;BME280;59992;47.490;8.736;2023-02-17T10:01:29;97803.04;;;11.93;49.59
72118;BME280;59992;47.490;8.736;2023-02-17T10:04:04;97797.27;;;11.99;49.97
72118;BME280;59992;47.490;8.736;2023-02-17T10:06:37;97793.95;;;12.03;49.47
72118;BME280;59992;47.490;8.736;2023-02-17T10:09:10;97795.08;;;12.11;49.96
72118;BME280;59992;47.490;8.736;2023-02-17T10:11:45;97793.42;;;12.17;51.31
72118;BME280;59992;47.490;8.736;2023-02-17T10:14:18;97794.08;;;12.22;50.35
72118;BME280;59992;47.490;8.736;2023-02-17T10:16:51;97797.23;;;12.20;50.68
72118;BME280;59992;47.490;8.736;2023-02-17T10:19:25;97798.49;;;12.13;50.02
72118;BME280;59992;47.490;8.736;2023-02-17T10:22:13;97798.93;;;12.13;50.33
72118;BME280;59992;47.490;8.736;2023-02-17T10:24:43;97797.01;;;12.12;49.08
72118;BME280;59992;47.490;8.736;2023-02-17T10:27:25;97795.98;;;12.10;49.45
72118;BME280;59992;47.490;8.736;2023-02-17T10:30:04;97800.30;;;12.10;49.44
72118;BME280;59992;47.490;8.736;2023-02-17T10:32:41;97803.48;;;12.20;50.22
72118;BME280;59992;47.490;8.736;2023-02-17T10:35:15;97804.40;;;12.30;50.22
72118;BME280;59992;47.490;8.736;2023-02-17T10:37:47;97806.66;;;12.39;50.30
72118;BME280;59992;47.490;8.736;2023-02-17T10:40:19;97807.77;;;12.55;51.02
72118;BME280;59992;47.490;8.736;2023-02-17T10:42:48;97808.02;;;12.68;50.56
72118;BME280;59992;47.490;8.736;2023-02-17T10:45:25;97806.17;;;12.76;50.10
72118;BME280;59992;47.490;8.736;2023-02-17T10:48:00;97802.52;;;12.85;49.75
72118;BME280;59992;47.490;8.736;2023-02-17T10:50:29;97798.17;;;12.98;49.45
72118;BME280;59992;47.490;8.736;2023-02-17T10:52:57;97796.84;;;13.08;50.24
72118;BME280;59992;47.490;8.736;2023-02-17T10:55:32;97789.87;;;13.09;49.65
72118;BME280;59992;47.490;8.736;2023-02-17T10:58:06;97780.24;;;13.10;49.30
72118;BME280;59992;47.490;8.736;2023-02-17T11:00:38;97782.80;;;13.15;49.89
72118;BME280;59992;47.490;8.736;2023-02-17T11:03:20;97782.29;;;13.13;49.52
72118;BME280;59992;47.490;8.736;2023-02-17T11:05:55;97776.11;;;13.09;49.68
72118;BME280;59992;47.490;8.736;2023-02-17T11:08:36;97766.35;;;13.15;50.36
72118;BME280;59992;47.490;8.736;2023-02-17T11:11:16;97765.38;;;13.22;49.79
72118;BME280;59992;47.490;8.736;2023-02-17T11:14:08;97760.13;;;13.33;50.22
72118;BME280;59992;47.490;8.736;2023-02-17T11:16:40;97755.69;;;13.46;50.33
72118;BME280;59992;47.490;8.736;2023-02-17T11:19:22;97753.85;;;13.52;50.41
72118;BME280;59992;47.490;8.736;2023-02-17T11:21:54;97751.65;;;13.56;50.38
72118;BME280;59992;47.490;8.736;2023-02-17T11:24:26;97746.21;;;13.51;50.08
72118;BME280;59992;47.490;8.736;2023-02-17T11:26:56;97746.96;;;13.62;50.69
72118;BME280;59992;47.490;8.736;2023-02-17T11:29:25;97743.00;;;13.62;50.58
72118;BME280;59992;47.490;8.736;2023-02-17T11:31:59;97744.61;;;13.63;50.77
72118;BME280;59992;47.490;8.736;2023-02-17T11:34:30;97740.31;;;13.69;50.88
72118;BME280;59992;47.490;8.736;2023-02-17T11:37:01;97735.98;;;13.72;51.18
72118;BME280;59992;47.490;8.736;2023-02-17T11:39:55;97729.79;;;13.63;50.66
72118;BME280;59992;47.490;8.736;2023-02-17T11:42:24;97723.05;;;13.54;50.94
72118;BME280;59992;47.490;8.736;2023-02-17T11:44:55;97731.14;;;13.67;51.75
72118;BME280;59992;47.490;8.736;2023-02-17T11:47:31;97729.90;;;13.66;51.16
72118;BME280;59992;47.490;8.736;2023-02-17T11:50:25;97723.91;;;13.67;51.15
72118;BME280;59992;47.490;8.736;2023-02-17T11:53:09;97723.11;;;13.69;51.34
72118;BME280;59992;47.490;8.736;2023-02-17T11:55:49;97712.33;;;13.67;50.81
72118;BME280;59992;47.490;8.736;2023-02-17T11:58:56;97715.73;;;13.73;51.55
72118;BME280;59992;47.490;8.736;2023-02-17T12:01:43;97716.92;;;13.79;51.98
72118;BME280;59992;47.490;8.736;2023-02-17T12:04:26;97712.96;;;13.71;51.32
72118;BME280;59992;47.490;8.736;2023-02-17T12:07:21;97718.02;;;13.81;51.32
72118;BME280;59992;47.490;8.736;2023-02-17T12:09:59;97714.00;;;13.86;51.38
72118;BME280;59992;47.490;8.736;2023-02-17T12:12:39;97711.59;;;13.83;51.04
72118;BME280;59992;47.490;8.736;2023-02-17T12:15:28;97709.04;;;13.85;51.07
72118;BME280;59992;47.490;8.736;2023-02-17T12:18:07;97706.33;;;13.87;51.07
72118;BME280;59992;47.490;8.736;2023-02-17T12:20:46;97694.48;;;13.81;51.24
72118;BME280;59992;47.490;8.736;2023-02-17T12:23:26;97707.21;;;13.86;51.33
72118;BME280;59992;47.490;8.736;2023-02-17T12:26:00;97704.92;;;13.89;51.80
72118;BME280;59992;47.490;8.736;2023-02-17T12:28:47;97701.46;;;13.92;51.65
72118;BME280;59992;47.490;8.736;2023-02-17T12:31:34;97707.71;;;13.96;51.87
72118;BME280;59992;47.490;8.736;2023-02-17T12:34:13;97703.66;;;14.04;52.03
72118;BME280;59992;47.490;8.736;2023-02-17T12:36:44;97699.79;;;14.00;52.07
72118;BME280;59992;47.490;8.736;2023-02-17T12:39:17;97699.19;;;14.00;52.10
72118;BME280;59992;47.490;8.736;2023-02-17T12:41:49;97702.08;;;14.01;52.65
72118;BME280;59992;47.490;8.736;2023-02-17T12:44:22;97700.59;;;13.90;53.77
72118;BME280;59992;47.490;8.736;2023-02-17T12:46:55;97697.52;;;13.97;54.54
72118;BME280;59992;47.490;8.736;2023-02-17T12:49:29;97694.36;;;13.96;54.39
72118;BME280;59992;47.490;8.736;2023-02-17T12:52:02;97691.89;;;13.93;54.76
72118;BME280;59992;47.490;8.736;2023-02-17T12:54:35;97689.98;;;14.01;54.21
72118;BME280;59992;47.490;8.736;2023-02-17T12:57:10;97690.23;;;13.94;53.47
72118;BME280;59992;47.490;8.736;2023-02-17T12:59:41;97692.95;;;13.97;54.20
72118;BME280;59992;47.490;8.736;2023-02-17T13:02:12;97691.30;;;14.03;53.75
72118;BME280;59992;47.490;8.736;2023-02-17T13:04:41;97688.52;;;14.05;54.35
72118;BME280;59992;47.490;8.736;2023-02-17T13:07:37;97688.94;;;14.11;53.92
72118;BME280;59992;47.490;8.736;2023-02-17T13:10:19;97690.82;;;14.14;54.12
72118;BME280;59992;47.490;8.736;2023-02-17T13:12:57;97691.41;;;14.04;53.69
72118;BME280;59992;47.490;8.736;2023-02-17T13:15:28;97689.44;;;14.14;54.01
72118;BME280;59992;47.490;8.736;2023-02-17T13:17:57;97687.63;;;14.19;54.17
72118;BME280;59992;47.490;8.736;2023-02-17T13:20:40;97685.94;;;14.23;53.54
72118;BME280;59992;47.490;8.736;2023-02-17T13:23:13;97689.13;;;14.34;53.93
72118;BME280;59992;47.490;8.736;2023-02-17T13:26:05;97682.64;;;14.38;53.73
72118;BME280;59992;47.490;8.736;2023-02-17T13:28:37;97685.23;;;14.30;53.54
72118;BME280;59992;47.490;8.736;2023-02-17T13:31:15;97681.59;;;14.26;53.63
72118;BME280;59992;47.490;8.736;2023-02-17T13:33:47;97685.60;;;14.25;53.18
72118;BME280;59992;47.490;8.736;2023-02-17T13:36:21;97681.61;;;14.32;53.30
72118;BME280;59992;47.490;8.736;2023-02-17T13:38:56;97675.20;;;14.35;53.15
72118;BME280;59992;47.490;8.736;2023-02-17T13:41:27;97677.46;;;14.34;53.15
72118;BME280;59992;47.490;8.736;2023-02-17T13:43:55;97678.17;;;14.31;52.91